Back to Top

Language: 

My Weather Underground Personal Weather Station Historical Data with Graphs...

Delerius Weather Station Historical Data
Daily Summary for December 08, 2017 Units:  Both    English   Metric
« Previous Day
Next Day »
Daily Weekly Monthly Yearly Custom
  High: Low: Average:
Temperature: 39.7 °F /  4.3 °C 32.5 °F /  0.3 °C 35.5 °F /  1.9 °C
Dew Point: 34.2 °F /  1.2 °C 25.8 °F /  -3.4 °C 28.2 °F /  -2.1 °C
Humidity: 93 % 63 % 75 %
Wind Speed: 16.0 mph /  25.7 km/h - 10.7 mph /  17.2 km/h
Wind Gust: 28.0 mph /  45.1 km/h - -
Wind:- - WNW
Pressure: 30.02 in /  1016.5 hPa 29.73 in /  1006.7 hPa -
Precipitation: 0.04 in /  1.02 mm    
Historical Graphs
 
 
Tabular Data for December 08, 2017
Time Temperature Dew Point Pressure Wind Wind Speed Wind Gust Humidity Rainfall Rate (Hourly) solar Conditions
00:05 36.1 °F /  2.3 °C 32.6 °F /  0.3 °C 29.75 in /  1007.3 hPa NW 4.0 mph /  6.4 km/h 8.0 mph /  12.9 km/h 87 % 0.01 in /  0.25 mm 0 W/m2
00:20 34.9 °F /  1.6 °C 32.2 °F /  0.1 °C 29.74 in /  1007 hPa West 5.0 mph /  8 km/h 9.0 mph /  14.5 km/h 90 % 0.02 in /  0.51 mm 0 W/m2
00:25 34.9 °F /  1.6 °C 32.2 °F /  0.1 °C 29.74 in /  1007 hPa West 5.0 mph /  8 km/h 9.0 mph /  14.5 km/h 90 % 0.02 in /  0.51 mm 0 W/m2
00:30 34.9 °F /  1.6 °C 32.5 °F /  0.3 °C 29.74 in /  1007 hPa West 1.0 mph /  1.6 km/h 4.0 mph /  6.4 km/h 91 % 0.02 in /  0.51 mm 0 W/m2
00:45 34.9 °F /  1.6 °C 32.8 °F /  0.4 °C 29.74 in /  1007 hPa WNW 4.0 mph /  6.4 km/h 12.0 mph /  19.3 km/h 92 % 0.03 in /  0.76 mm 0 W/m2
00:50 35.2 °F /  1.8 °C 33.4 °F /  0.8 °C 29.74 in /  1007 hPa WNW 10.0 mph /  16.1 km/h 14.0 mph /  22.5 km/h 93 % 0.03 in /  0.76 mm 0 W/m2
00:55 35.4 °F /  1.9 °C 33.6 °F /  0.9 °C 29.74 in /  1007 hPa WNW 10.0 mph /  16.1 km/h 13.0 mph /  20.9 km/h 93 % 0.03 in /  0.76 mm 0 W/m2
01:00 35.8 °F /  2.1 °C 34.0 °F /  1.1 °C 29.74 in /  1007 hPa WNW 11.0 mph /  17.7 km/h 18.0 mph /  29 km/h 93 % 0.03 in /  0.76 mm 0 W/m2
01:05 36.0 °F /  2.2 °C 34.1 °F /  1.2 °C 29.73 in /  1006.7 hPa WNW 10.0 mph /  16.1 km/h 15.0 mph /  24.1 km/h 93 % 0.03 in /  0.76 mm 0 W/m2
01:15 36.3 °F /  2.4 °C 34.2 °F /  1.2 °C 29.73 in /  1006.7 hPa WNW 11.0 mph /  17.7 km/h 16.0 mph /  25.7 km/h 92 % 0.02 in /  0.51 mm 0 W/m2
01:20 36.3 °F /  2.4 °C 34.2 °F /  1.2 °C 29.73 in /  1006.7 hPa West 11.0 mph /  17.7 km/h 15.0 mph /  24.1 km/h 92 % 0.03 in /  0.76 mm 0 W/m2
01:25 36.3 °F /  2.4 °C 34.2 °F /  1.2 °C 29.73 in /  1006.7 hPa WNW 12.0 mph /  19.3 km/h 18.0 mph /  29 km/h 92 % 0.02 in /  0.51 mm 0 W/m2
01:30 36.5 °F /  2.5 °C 34.1 °F /  1.2 °C 29.73 in /  1006.7 hPa West 12.0 mph /  19.3 km/h 20.0 mph /  32.2 km/h 91 % 0.02 in /  0.51 mm 0 W/m2
01:35 36.3 °F /  2.4 °C 33.9 °F /  1.1 °C 29.73 in /  1006.7 hPa WNW 10.0 mph /  16.1 km/h 19.0 mph /  30.6 km/h 91 % 0.02 in /  0.51 mm 0 W/m2
01:40 36.3 °F /  2.4 °C 33.9 °F /  1.1 °C 29.73 in /  1006.7 hPa WNW 12.0 mph /  19.3 km/h 20.0 mph /  32.2 km/h 91 % 0.02 in /  0.51 mm 0 W/m2
01:45 36.3 °F /  2.4 °C 33.9 °F /  1.1 °C 29.73 in /  1006.7 hPa WNW 14.0 mph /  22.5 km/h 21.0 mph /  33.8 km/h 91 % 0.02 in /  0.51 mm 0 W/m2
01:50 36.3 °F /  2.4 °C 33.9 °F /  1.1 °C 29.74 in /  1007 hPa WNW 11.0 mph /  17.7 km/h 16.0 mph /  25.7 km/h 91 % 0.02 in /  0.51 mm 0 W/m2
01:55 36.1 °F /  2.3 °C 33.8 °F /  1 °C 29.74 in /  1007 hPa WNW 12.0 mph /  19.3 km/h 16.0 mph /  25.7 km/h 91 % 0.01 in /  0.25 mm 0 W/m2
09:14 34.2 °F /  1.2 °C 28.6 °F /  -1.9 °C 29.89 in /  1012.1 hPa West 9.0 mph /  14.5 km/h 10.0 mph /  16.1 km/h 80 % 0.00 in /  0 mm 33 W/m2
09:15 34.2 °F /  1.2 °C 28.6 °F /  -1.9 °C 29.89 in /  1012.1 hPa WNW 11.0 mph /  17.7 km/h 16.0 mph /  25.7 km/h 80 % 0.00 in /  0 mm 33 W/m2
09:25 34.3 °F /  1.3 °C 28.8 °F /  -1.8 °C 29.89 in /  1012.1 hPa WNW 11.0 mph /  17.7 km/h 18.0 mph /  29 km/h 80 % 0.00 in /  0 mm 128 W/m2
09:30 34.5 °F /  1.4 °C 29.0 °F /  -1.7 °C 29.89 in /  1012.1 hPa WNW 14.0 mph /  22.5 km/h 21.0 mph /  33.8 km/h 80 % 0.00 in /  0 mm 137 W/m2
09:35 35.1 °F /  1.7 °C 29.2 °F /  -1.6 °C 29.89 in /  1012.1 hPa WNW 10.0 mph /  16.1 km/h 18.0 mph /  29 km/h 79 % 0.00 in /  0 mm 144 W/m2
09:40 35.2 °F /  1.8 °C 29.1 °F /  -1.6 °C 29.90 in /  1012.4 hPa WNW 12.0 mph /  19.3 km/h 18.0 mph /  29 km/h 78 % 0.00 in /  0 mm 149 W/m2
09:45 35.4 °F /  1.9 °C 29.2 °F /  -1.6 °C 29.90 in /  1012.4 hPa West 14.0 mph /  22.5 km/h 25.0 mph /  40.2 km/h 78 % 0.00 in /  0 mm 158 W/m2
09:50 35.6 °F /  2 °C 29.4 °F /  -1.4 °C 29.90 in /  1012.4 hPa WNW 13.0 mph /  20.9 km/h 21.0 mph /  33.8 km/h 78 % 0.00 in /  0 mm 163 W/m2
09:55 35.8 °F /  2.1 °C 29.3 °F /  -1.5 °C 29.90 in /  1012.4 hPa WNW 13.0 mph /  20.9 km/h 22.0 mph /  35.4 km/h 77 % 0.00 in /  0 mm 171 W/m2
10:00 36.0 °F /  2.2 °C 29.4 °F /  -1.4 °C 29.91 in /  1012.8 hPa WNW 13.0 mph /  20.9 km/h 21.0 mph /  33.8 km/h 77 % 0.00 in /  0 mm 178 W/m2
10:06 36.1 °F /  2.3 °C 29.3 °F /  -1.5 °C 29.91 in /  1012.8 hPa WNW 14.0 mph /  22.5 km/h 25.0 mph /  40.2 km/h 76 % 0.00 in /  0 mm 183 W/m2
10:11 36.1 °F /  2.3 °C 29.0 °F /  -1.7 °C 29.91 in /  1012.8 hPa WNW 13.0 mph /  20.9 km/h 22.0 mph /  35.4 km/h 75 % 0.00 in /  0 mm 192 W/m2
10:26 36.7 °F /  2.6 °C 28.8 °F /  -1.8 °C 29.92 in /  1013.1 hPa WNW 11.0 mph /  17.7 km/h 22.0 mph /  35.4 km/h 73 % 0.00 in /  0 mm 206 W/m2
10:31 36.9 °F /  2.7 °C 28.7 °F /  -1.8 °C 29.92 in /  1013.1 hPa WNW 15.0 mph /  24.1 km/h 25.0 mph /  40.2 km/h 72 % 0.00 in /  0 mm 211 W/m2
10:36 37.0 °F /  2.8 °C 28.8 °F /  -1.8 °C 29.92 in /  1013.1 hPa WNW 12.0 mph /  19.3 km/h 20.0 mph /  32.2 km/h 72 % 0.00 in /  0 mm 214 W/m2
10:41 37.2 °F /  2.9 °C 29.0 °F /  -1.7 °C 29.92 in /  1013.1 hPa NW 12.0 mph /  19.3 km/h 18.0 mph /  29 km/h 72 % 0.00 in /  0 mm 220 W/m2
10:46 37.6 °F /  3.1 °C 29.4 °F /  -1.4 °C 29.92 in /  1013.1 hPa WNW 13.0 mph /  20.9 km/h 23.0 mph /  37 km/h 72 % 0.00 in /  0 mm 225 W/m2
10:51 37.6 °F /  3.1 °C 29.0 °F /  -1.7 °C 29.92 in /  1013.1 hPa WNW 14.0 mph /  22.5 km/h 23.0 mph /  37 km/h 71 % 0.00 in /  0 mm 229 W/m2
10:56 37.8 °F /  3.2 °C 29.5 °F /  -1.4 °C 29.92 in /  1013.1 hPa WNW 16.0 mph /  25.7 km/h 24.0 mph /  38.6 km/h 72 % 0.00 in /  0 mm 234 W/m2
11:01 37.9 °F /  3.3 °C 29.7 °F /  -1.3 °C 29.92 in /  1013.1 hPa WNW 13.0 mph /  20.9 km/h 24.0 mph /  38.6 km/h 72 % 0.00 in /  0 mm 237 W/m2
11:11 38.1 °F /  3.4 °C 30.2 °F /  -1 °C 29.92 in /  1013.1 hPa WNW 13.0 mph /  20.9 km/h 21.0 mph /  33.8 km/h 73 % 0.00 in /  0 mm 244 W/m2
11:21 38.5 °F /  3.6 °C 30.6 °F /  -0.8 °C 29.92 in /  1013.1 hPa WNW 14.0 mph /  22.5 km/h 22.0 mph /  35.4 km/h 73 % 0.00 in /  0 mm 246 W/m2
11:36 38.8 °F /  3.8 °C 30.2 °F /  -1 °C 29.92 in /  1013.1 hPa WNW 12.0 mph /  19.3 km/h 22.0 mph /  35.4 km/h 71 % 0.00 in /  0 mm 253 W/m2
11:41 39.0 °F /  3.9 °C 30.1 °F /  -1.1 °C 29.93 in /  1013.4 hPa WNW 14.0 mph /  22.5 km/h 22.0 mph /  35.4 km/h 70 % 0.00 in /  0 mm 251 W/m2
11:46 39.0 °F /  3.9 °C 30.1 °F /  -1.1 °C 29.93 in /  1013.4 hPa WNW 10.0 mph /  16.1 km/h 18.0 mph /  29 km/h 70 % 0.00 in /  0 mm 255 W/m2
11:51 39.4 °F /  4.1 °C 30.4 °F /  -0.9 °C 29.93 in /  1013.4 hPa WNW 12.0 mph /  19.3 km/h 21.0 mph /  33.8 km/h 70 % 0.00 in /  0 mm 255 W/m2
12:01 39.2 °F /  4 °C 29.9 °F /  -1.2 °C 29.93 in /  1013.4 hPa WNW 12.0 mph /  19.3 km/h 21.0 mph /  33.8 km/h 69 % 0.00 in /  0 mm 255 W/m2
12:04 39.0 °F /  3.9 °C 29.3 °F /  -1.5 °C 29.94 in /  1013.8 hPa WNW 16.0 mph /  25.7 km/h 28.0 mph /  45.1 km/h 68 % 0.00 in /  0 mm 255 W/m2
12:09 39.0 °F /  3.9 °C 29.0 °F /  -1.7 °C 29.93 in /  1013.4 hPa NW 15.0 mph /  24.1 km/h 23.0 mph /  37 km/h 67 % 0.00 in /  0 mm 255 W/m2
12:14 39.0 °F /  3.9 °C 29.0 °F /  -1.7 °C 29.93 in /  1013.4 hPa WNW 16.0 mph /  25.7 km/h 28.0 mph /  45.1 km/h 67 % 0.00 in /  0 mm 253 W/m2
12:19 39.2 °F /  4 °C 29.5 °F /  -1.4 °C 29.93 in /  1013.4 hPa WNW 12.0 mph /  19.3 km/h 19.0 mph /  30.6 km/h 68 % 0.00 in /  0 mm 251 W/m2
12:29 39.4 °F /  4.1 °C 29.3 °F /  -1.5 °C 29.93 in /  1013.4 hPa WNW 15.0 mph /  24.1 km/h 24.0 mph /  38.6 km/h 67 % 0.00 in /  0 mm 250 W/m2
12:44 39.6 °F /  4.2 °C 29.5 °F /  -1.4 °C 29.93 in /  1013.4 hPa WNW 13.0 mph /  20.9 km/h 21.0 mph /  33.8 km/h 67 % 0.00 in /  0 mm 241 W/m2
12:49 39.7 °F /  4.3 °C 29.3 °F /  -1.5 °C 29.93 in /  1013.4 hPa NW 13.0 mph /  20.9 km/h 21.0 mph /  33.8 km/h 66 % 0.00 in /  0 mm 234 W/m2
12:54 39.6 °F /  4.2 °C 29.1 °F /  -1.6 °C 29.94 in /  1013.8 hPa WNW 13.0 mph /  20.9 km/h 22.0 mph /  35.4 km/h 66 % 0.00 in /  0 mm 234 W/m2
13:04 39.7 °F /  4.3 °C 29.3 °F /  -1.5 °C 29.94 in /  1013.8 hPa WNW 14.0 mph /  22.5 km/h 22.0 mph /  35.4 km/h 66 % 0.00 in /  0 mm 223 W/m2
13:09 39.6 °F /  4.2 °C 28.4 °F /  -2 °C 29.94 in /  1013.8 hPa WNW 16.0 mph /  25.7 km/h 25.0 mph /  40.2 km/h 64 % 0.00 in /  0 mm 220 W/m2
13:14 39.4 °F /  4.1 °C 28.2 °F /  -2.1 °C 29.94 in /  1013.8 hPa WNW 13.0 mph /  20.9 km/h 20.0 mph /  32.2 km/h 64 % 0.00 in /  0 mm 214 W/m2
13:19 39.4 °F /  4.1 °C 28.6 °F /  -1.9 °C 29.94 in /  1013.8 hPa WNW 13.0 mph /  20.9 km/h 21.0 mph /  33.8 km/h 65 % 0.00 in /  0 mm 209 W/m2
13:29 39.4 °F /  4.1 °C 28.6 °F /  -1.9 °C 29.94 in /  1013.8 hPa WNW 10.0 mph /  16.1 km/h 16.0 mph /  25.7 km/h 65 % 0.00 in /  0 mm 199 W/m2
13:34 39.4 °F /  4.1 °C 28.6 °F /  -1.9 °C 29.94 in /  1013.8 hPa WNW 11.0 mph /  17.7 km/h 19.0 mph /  30.6 km/h 65 % 0.00 in /  0 mm 193 W/m2
13:39 39.4 °F /  4.1 °C 27.8 °F /  -2.3 °C 29.95 in /  1014.1 hPa WNW 15.0 mph /  24.1 km/h 24.0 mph /  38.6 km/h 63 % 0.00 in /  0 mm 188 W/m2
13:51 39.0 °F /  3.9 °C 27.5 °F /  -2.5 °C 29.94 in /  1013.8 hPa WNW 12.0 mph /  19.3 km/h 23.0 mph /  37 km/h 63 % 0.00 in /  0 mm 176 W/m2
13:56 39.0 °F /  3.9 °C 27.5 °F /  -2.5 °C 29.94 in /  1013.8 hPa WNW 15.0 mph /  24.1 km/h 25.0 mph /  40.2 km/h 63 % 0.00 in /  0 mm 167 W/m2
14:01 38.8 °F /  3.8 °C 27.7 °F /  -2.4 °C 29.95 in /  1014.1 hPa WNW 15.0 mph /  24.1 km/h 22.0 mph /  35.4 km/h 64 % 0.00 in /  0 mm 156 W/m2
14:06 38.8 °F /  3.8 °C 28.1 °F /  -2.2 °C 29.95 in /  1014.1 hPa NW 13.0 mph /  20.9 km/h 23.0 mph /  37 km/h 65 % 0.00 in /  0 mm 151 W/m2
14:11 38.7 °F /  3.7 °C 27.9 °F /  -2.3 °C 29.95 in /  1014.1 hPa WNW 14.0 mph /  22.5 km/h 23.0 mph /  37 km/h 65 % 0.00 in /  0 mm 141 W/m2
14:16 38.7 °F /  3.7 °C 28.3 °F /  -2.1 °C 29.95 in /  1014.1 hPa WNW 8.0 mph /  12.9 km/h 12.0 mph /  19.3 km/h 66 % 0.00 in /  0 mm 132 W/m2
14:21 38.7 °F /  3.7 °C 27.9 °F /  -2.3 °C 29.95 in /  1014.1 hPa NW 9.0 mph /  14.5 km/h 16.0 mph /  25.7 km/h 65 % 0.00 in /  0 mm 123 W/m2
14:26 38.5 °F /  3.6 °C 27.4 °F /  -2.6 °C 29.95 in /  1014.1 hPa WNW 11.0 mph /  17.7 km/h 20.0 mph /  32.2 km/h 64 % 0.00 in /  0 mm 76 W/m2
14:36 37.9 °F /  3.3 °C 26.8 °F /  -2.9 °C 29.95 in /  1014.1 hPa WNW 12.0 mph /  19.3 km/h 19.0 mph /  30.6 km/h 64 % 0.00 in /  0 mm 95 W/m2
14:41 37.8 °F /  3.2 °C 27.0 °F /  -2.8 °C 29.96 in /  1014.4 hPa NW 10.0 mph /  16.1 km/h 19.0 mph /  30.6 km/h 65 % 0.00 in /  0 mm 81 W/m2
14:46 37.6 °F /  3.1 °C 27.2 °F /  -2.7 °C 29.95 in /  1014.1 hPa WNW 12.0 mph /  19.3 km/h 21.0 mph /  33.8 km/h 66 % 0.00 in /  0 mm 21 W/m2
14:51 37.2 °F /  2.9 °C 26.9 °F /  -2.8 °C 29.95 in /  1014.1 hPa WNW 10.0 mph /  16.1 km/h 20.0 mph /  32.2 km/h 66 % 0.00 in /  0 mm 18 W/m2
14:56 36.9 °F /  2.7 °C 26.9 °F /  -2.8 °C 29.95 in /  1014.1 hPa WNW 11.0 mph /  17.7 km/h 18.0 mph /  29 km/h 67 % 0.00 in /  0 mm 16 W/m2
15:01 36.7 °F /  2.6 °C 26.7 °F /  -2.9 °C 29.95 in /  1014.1 hPa WNW 13.0 mph /  20.9 km/h 21.0 mph /  33.8 km/h 67 % 0.00 in /  0 mm 14 W/m2
15:06 36.3 °F /  2.4 °C 26.8 °F /  -2.9 °C 29.95 in /  1014.1 hPa WNW 13.0 mph /  20.9 km/h 21.0 mph /  33.8 km/h 68 % 0.00 in /  0 mm 14 W/m2
15:11 36.1 °F /  2.3 °C 26.9 °F /  -2.8 °C 29.95 in /  1014.1 hPa WNW 14.0 mph /  22.5 km/h 21.0 mph /  33.8 km/h 69 % 0.00 in /  0 mm 14 W/m2
15:16 36.1 °F /  2.3 °C 26.9 °F /  -2.8 °C 29.95 in /  1014.1 hPa WNW 12.0 mph /  19.3 km/h 22.0 mph /  35.4 km/h 69 % 0.00 in /  0 mm 12 W/m2
15:21 36.0 °F /  2.2 °C 27.1 °F /  -2.7 °C 29.95 in /  1014.1 hPa WNW 14.0 mph /  22.5 km/h 20.0 mph /  32.2 km/h 70 % 0.00 in /  0 mm 12 W/m2
15:26 35.8 °F /  2.1 °C 26.9 °F /  -2.8 °C 29.95 in /  1014.1 hPa WNW 12.0 mph /  19.3 km/h 18.0 mph /  29 km/h 70 % 0.00 in /  0 mm 11 W/m2
15:36 35.6 °F /  2 °C 27.5 °F /  -2.5 °C 29.95 in /  1014.1 hPa WNW 11.0 mph /  17.7 km/h 18.0 mph /  29 km/h 72 % 0.00 in /  0 mm 9 W/m2
15:46 35.2 °F /  1.8 °C 27.4 °F /  -2.6 °C 29.95 in /  1014.1 hPa WNW 10.0 mph /  16.1 km/h 14.0 mph /  22.5 km/h 73 % 0.00 in /  0 mm 5 W/m2
15:56 35.1 °F /  1.7 °C 27.6 °F /  -2.4 °C 29.95 in /  1014.1 hPa WNW 11.0 mph /  17.7 km/h 18.0 mph /  29 km/h 74 % 0.00 in /  0 mm 0 W/m2
16:02 35.1 °F /  1.7 °C 27.6 °F /  -2.4 °C 29.95 in /  1014.1 hPa WNW 10.0 mph /  16.1 km/h 18.0 mph /  29 km/h 74 % 0.00 in /  0 mm 0 W/m2
16:07 35.1 °F /  1.7 °C 27.9 °F /  -2.3 °C 29.95 in /  1014.1 hPa WNW 11.0 mph /  17.7 km/h 18.0 mph /  29 km/h 75 % 0.00 in /  0 mm 0 W/m2
16:12 34.9 °F /  1.6 °C 27.8 °F /  -2.3 °C 29.95 in /  1014.1 hPa WNW 9.0 mph /  14.5 km/h 13.0 mph /  20.9 km/h 75 % 0.00 in /  0 mm 0 W/m2
16:22 34.9 °F /  1.6 °C 27.8 °F /  -2.3 °C 29.95 in /  1014.1 hPa WNW 10.0 mph /  16.1 km/h 16.0 mph /  25.7 km/h 75 % 0.00 in /  0 mm 0 W/m2
16:32 34.9 °F /  1.6 °C 27.8 °F /  -2.3 °C 29.95 in /  1014.1 hPa WNW 12.0 mph /  19.3 km/h 19.0 mph /  30.6 km/h 75 % 0.00 in /  0 mm 0 W/m2
16:37 34.9 °F /  1.6 °C 28.1 °F /  -2.2 °C 29.96 in /  1014.4 hPa WNW 10.0 mph /  16.1 km/h 15.0 mph /  24.1 km/h 76 % 0.00 in /  0 mm 0 W/m2
16:47 34.5 °F /  1.4 °C 27.7 °F /  -2.4 °C 29.96 in /  1014.4 hPa WNW 9.0 mph /  14.5 km/h 15.0 mph /  24.1 km/h 76 % 0.00 in /  0 mm 0 W/m2
16:52 34.5 °F /  1.4 °C 27.7 °F /  -2.4 °C 29.96 in /  1014.4 hPa WNW 9.0 mph /  14.5 km/h 16.0 mph /  25.7 km/h 76 % 0.00 in /  0 mm 0 W/m2
16:57 34.3 °F /  1.3 °C 27.6 °F /  -2.4 °C 29.97 in /  1014.8 hPa WNW 9.0 mph /  14.5 km/h 15.0 mph /  24.1 km/h 76 % 0.00 in /  0 mm 0 W/m2
17:02 34.3 °F /  1.3 °C 27.6 °F /  -2.4 °C 29.97 in /  1014.8 hPa WNW 10.0 mph /  16.1 km/h 15.0 mph /  24.1 km/h 76 % 0.00 in /  0 mm 0 W/m2
17:07 34.3 °F /  1.3 °C 27.6 °F /  -2.4 °C 29.97 in /  1014.8 hPa WNW 9.0 mph /  14.5 km/h 14.0 mph /  22.5 km/h 76 % 0.00 in /  0 mm 0 W/m2
17:12 34.3 °F /  1.3 °C 27.6 °F /  -2.4 °C 29.97 in /  1014.8 hPa WNW 10.0 mph /  16.1 km/h 14.0 mph /  22.5 km/h 76 % 0.00 in /  0 mm 0 W/m2
17:17 34.2 °F /  1.2 °C 27.1 °F /  -2.7 °C 29.97 in /  1014.8 hPa WNW 12.0 mph /  19.3 km/h 16.0 mph /  25.7 km/h 75 % 0.00 in /  0 mm 0 W/m2
17:22 34.2 °F /  1.2 °C 26.7 °F /  -2.9 °C 29.98 in /  1015.1 hPa WNW 11.0 mph /  17.7 km/h 15.0 mph /  24.1 km/h 74 % 0.00 in /  0 mm 0 W/m2
17:27 34.2 °F /  1.2 °C 26.7 °F /  -2.9 °C 29.98 in /  1015.1 hPa WNW 10.0 mph /  16.1 km/h 15.0 mph /  24.1 km/h 74 % 0.00 in /  0 mm 0 W/m2
17:37 34.0 °F /  1.1 °C 26.6 °F /  -3 °C 29.98 in /  1015.1 hPa WNW 12.0 mph /  19.3 km/h 16.0 mph /  25.7 km/h 74 % 0.00 in /  0 mm 0 W/m2
17:42 34.0 °F /  1.1 °C 26.6 °F /  -3 °C 29.98 in /  1015.1 hPa WNW 8.0 mph /  12.9 km/h 12.0 mph /  19.3 km/h 74 % 0.00 in /  0 mm 0 W/m2
17:47 34.0 °F /  1.1 °C 26.6 °F /  -3 °C 29.98 in /  1015.1 hPa WNW 10.0 mph /  16.1 km/h 15.0 mph /  24.1 km/h 74 % 0.00 in /  0 mm 0 W/m2
17:52 33.8 °F /  1 °C 26.4 °F /  -3.1 °C 29.97 in /  1014.8 hPa WNW 11.0 mph /  17.7 km/h 19.0 mph /  30.6 km/h 74 % 0.00 in /  0 mm 0 W/m2
18:02 33.8 °F /  1 °C 26.7 °F /  -2.9 °C 29.98 in /  1015.1 hPa WNW 12.0 mph /  19.3 km/h 22.0 mph /  35.4 km/h 75 % 0.00 in /  0 mm 0 W/m2
18:07 33.6 °F /  0.9 °C 26.5 °F /  -3.1 °C 29.98 in /  1015.1 hPa WNW 9.0 mph /  14.5 km/h 15.0 mph /  24.1 km/h 75 % 0.00 in /  0 mm 0 W/m2
18:17 33.6 °F /  0.9 °C 26.5 °F /  -3.1 °C 29.98 in /  1015.1 hPa WNW 8.0 mph /  12.9 km/h 12.0 mph /  19.3 km/h 75 % 0.00 in /  0 mm 0 W/m2
18:22 33.6 °F /  0.9 °C 26.5 °F /  -3.1 °C 29.99 in /  1015.5 hPa WNW 9.0 mph /  14.5 km/h 13.0 mph /  20.9 km/h 75 % 0.00 in /  0 mm 0 W/m2
18:27 33.6 °F /  0.9 °C 26.5 °F /  -3.1 °C 29.98 in /  1015.1 hPa WNW 9.0 mph /  14.5 km/h 15.0 mph /  24.1 km/h 75 % 0.00 in /  0 mm 0 W/m2
18:32 33.6 °F /  0.9 °C 26.5 °F /  -3.1 °C 29.98 in /  1015.1 hPa West 11.0 mph /  17.7 km/h 16.0 mph /  25.7 km/h 75 % 0.00 in /  0 mm 0 W/m2
18:37 33.6 °F /  0.9 °C 26.5 °F /  -3.1 °C 29.98 in /  1015.1 hPa WNW 10.0 mph /  16.1 km/h 14.0 mph /  22.5 km/h 75 % 0.00 in /  0 mm 0 W/m2
18:52 33.4 °F /  0.8 °C 26.4 °F /  -3.1 °C 29.99 in /  1015.5 hPa WNW 10.0 mph /  16.1 km/h 15.0 mph /  24.1 km/h 75 % 0.00 in /  0 mm 0 W/m2
18:57 33.4 °F /  0.8 °C 26.4 °F /  -3.1 °C 30.00 in /  1015.8 hPa WNW 11.0 mph /  17.7 km/h 23.0 mph /  37 km/h 75 % 0.00 in /  0 mm 0 W/m2
19:02 33.4 °F /  0.8 °C 26.4 °F /  -3.1 °C 29.99 in /  1015.5 hPa WNW 10.0 mph /  16.1 km/h 18.0 mph /  29 km/h 75 % 0.00 in /  0 mm 0 W/m2
19:08 33.4 °F /  0.8 °C 26.4 °F /  -3.1 °C 30.00 in /  1015.8 hPa WNW 12.0 mph /  19.3 km/h 16.0 mph /  25.7 km/h 75 % 0.00 in /  0 mm 0 W/m2
19:13 33.4 °F /  0.8 °C 26.4 °F /  -3.1 °C 30.00 in /  1015.8 hPa WNW 10.0 mph /  16.1 km/h 14.0 mph /  22.5 km/h 75 % 0.00 in /  0 mm 0 W/m2
19:18 33.4 °F /  0.8 °C 26.4 °F /  -3.1 °C 30.00 in /  1015.8 hPa WNW 11.0 mph /  17.7 km/h 15.0 mph /  24.1 km/h 75 % 0.00 in /  0 mm 0 W/m2
19:23 33.4 °F /  0.8 °C 26.4 °F /  -3.1 °C 30.00 in /  1015.8 hPa WNW 11.0 mph /  17.7 km/h 15.0 mph /  24.1 km/h 75 % 0.00 in /  0 mm 0 W/m2
19:28 33.4 °F /  0.8 °C 26.4 °F /  -3.1 °C 30.00 in /  1015.8 hPa WNW 11.0 mph /  17.7 km/h 19.0 mph /  30.6 km/h 75 % 0.00 in /  0 mm 0 W/m2
19:33 33.3 °F /  0.7 °C 25.9 °F /  -3.4 °C 30.00 in /  1015.8 hPa WNW 8.0 mph /  12.9 km/h 13.0 mph /  20.9 km/h 74 % 0.00 in /  0 mm 0 W/m2
19:38 33.3 °F /  0.7 °C 26.2 °F /  -3.2 °C 30.00 in /  1015.8 hPa WNW 10.0 mph /  16.1 km/h 15.0 mph /  24.1 km/h 75 % 0.00 in /  0 mm 0 W/m2
19:43 33.3 °F /  0.7 °C 26.2 °F /  -3.2 °C 30.00 in /  1015.8 hPa WNW 12.0 mph /  19.3 km/h 19.0 mph /  30.6 km/h 75 % 0.00 in /  0 mm 0 W/m2
19:48 33.3 °F /  0.7 °C 26.2 °F /  -3.2 °C 30.00 in /  1015.8 hPa WNW 10.0 mph /  16.1 km/h 15.0 mph /  24.1 km/h 75 % 0.00 in /  0 mm 0 W/m2
19:58 33.3 °F /  0.7 °C 26.2 °F /  -3.2 °C 30.00 in /  1015.8 hPa WNW 10.0 mph /  16.1 km/h 14.0 mph /  22.5 km/h 75 % 0.00 in /  0 mm 0 W/m2
20:03 33.3 °F /  0.7 °C 26.2 °F /  -3.2 °C 30.00 in /  1015.8 hPa WNW 9.0 mph /  14.5 km/h 14.0 mph /  22.5 km/h 75 % 0.00 in /  0 mm 0 W/m2
20:18 33.3 °F /  0.7 °C 26.2 °F /  -3.2 °C 30.00 in /  1015.8 hPa WNW 9.0 mph /  14.5 km/h 16.0 mph /  25.7 km/h 75 % 0.00 in /  0 mm 0 W/m2
20:23 33.3 °F /  0.7 °C 26.2 °F /  -3.2 °C 30.00 in /  1015.8 hPa West 11.0 mph /  17.7 km/h 16.0 mph /  25.7 km/h 75 % 0.00 in /  0 mm 0 W/m2
20:43 33.1 °F /  0.6 °C 26.3 °F /  -3.2 °C 30.01 in /  1016.1 hPa WNW 8.0 mph /  12.9 km/h 12.0 mph /  19.3 km/h 76 % 0.00 in /  0 mm 0 W/m2
20:48 33.1 °F /  0.6 °C 26.3 °F /  -3.2 °C 30.01 in /  1016.1 hPa WNW 8.0 mph /  12.9 km/h 14.0 mph /  22.5 km/h 76 % 0.00 in /  0 mm 0 W/m2
20:53 32.9 °F /  0.5 °C 26.2 °F /  -3.2 °C 30.01 in /  1016.1 hPa WNW 9.0 mph /  14.5 km/h 14.0 mph /  22.5 km/h 76 % 0.00 in /  0 mm 0 W/m2
20:58 32.9 °F /  0.5 °C 26.2 °F /  -3.2 °C 30.01 in /  1016.1 hPa WNW 9.0 mph /  14.5 km/h 16.0 mph /  25.7 km/h 76 % 0.00 in /  0 mm 0 W/m2
21:03 32.9 °F /  0.5 °C 26.2 °F /  -3.2 °C 30.01 in /  1016.1 hPa WNW 9.0 mph /  14.5 km/h 13.0 mph /  20.9 km/h 76 % 0.00 in /  0 mm 0 W/m2
21:13 32.9 °F /  0.5 °C 26.2 °F /  -3.2 °C 30.01 in /  1016.1 hPa WNW 8.0 mph /  12.9 km/h 14.0 mph /  22.5 km/h 76 % 0.00 in /  0 mm 0 W/m2
21:18 32.7 °F /  0.4 °C 26.0 °F /  -3.3 °C 30.01 in /  1016.1 hPa WNW 7.0 mph /  11.3 km/h 11.0 mph /  17.7 km/h 76 % 0.00 in /  0 mm 0 W/m2
21:28 32.7 °F /  0.4 °C 26.0 °F /  -3.3 °C 30.01 in /  1016.1 hPa WNW 6.0 mph /  9.7 km/h 10.0 mph /  16.1 km/h 76 % 0.00 in /  0 mm 0 W/m2
21:34 32.7 °F /  0.4 °C 26.0 °F /  -3.3 °C 30.01 in /  1016.1 hPa NW 5.0 mph /  8 km/h 8.0 mph /  12.9 km/h 76 % 0.00 in /  0 mm 0 W/m2
21:39 32.5 °F /  0.3 °C 25.8 °F /  -3.4 °C 30.01 in /  1016.1 hPa WNW 7.0 mph /  11.3 km/h 11.0 mph /  17.7 km/h 76 % 0.00 in /  0 mm 0 W/m2
21:44 32.5 °F /  0.3 °C 26.1 °F /  -3.3 °C 30.01 in /  1016.1 hPa WNW 8.0 mph /  12.9 km/h 13.0 mph /  20.9 km/h 77 % 0.00 in /  0 mm 0 W/m2
21:49 32.5 °F /  0.3 °C 26.1 °F /  -3.3 °C 30.01 in /  1016.1 hPa WNW 8.0 mph /  12.9 km/h 13.0 mph /  20.9 km/h 77 % 0.00 in /  0 mm 0 W/m2
21:59 32.5 °F /  0.3 °C 26.1 °F /  -3.3 °C 30.00 in /  1015.8 hPa WNW 8.0 mph /  12.9 km/h 13.0 mph /  20.9 km/h 77 % 0.00 in /  0 mm 0 W/m2
22:04 32.7 °F /  0.4 °C 26.3 °F /  -3.2 °C 30.00 in /  1015.8 hPa WNW 11.0 mph /  17.7 km/h 19.0 mph /  30.6 km/h 77 % 0.00 in /  0 mm 0 W/m2
22:19 32.9 °F /  0.5 °C 26.5 °F /  -3.1 °C 30.00 in /  1015.8 hPa WNW 10.0 mph /  16.1 km/h 18.0 mph /  29 km/h 77 % 0.00 in /  0 mm 0 W/m2
22:24 32.9 °F /  0.5 °C 26.5 °F /  -3.1 °C 30.00 in /  1015.8 hPa WNW 10.0 mph /  16.1 km/h 14.0 mph /  22.5 km/h 77 % 0.00 in /  0 mm 0 W/m2
22:29 32.9 °F /  0.5 °C 26.2 °F /  -3.2 °C 30.00 in /  1015.8 hPa WNW 9.0 mph /  14.5 km/h 14.0 mph /  22.5 km/h 76 % 0.00 in /  0 mm 0 W/m2
22:34 32.9 °F /  0.5 °C 26.2 °F /  -3.2 °C 30.00 in /  1015.8 hPa WNW 11.0 mph /  17.7 km/h 15.0 mph /  24.1 km/h 76 % 0.00 in /  0 mm 0 W/m2
22:44 32.9 °F /  0.5 °C 26.2 °F /  -3.2 °C 30.01 in /  1016.1 hPa WNW 9.0 mph /  14.5 km/h 13.0 mph /  20.9 km/h 76 % 0.00 in /  0 mm 0 W/m2
22:59 32.7 °F /  0.4 °C 26.0 °F /  -3.3 °C 30.00 in /  1015.8 hPa WNW 6.0 mph /  9.7 km/h 10.0 mph /  16.1 km/h 76 % 0.00 in /  0 mm 0 W/m2
23:04 32.5 °F /  0.3 °C 25.8 °F /  -3.4 °C 30.01 in /  1016.1 hPa WNW 6.0 mph /  9.7 km/h 9.0 mph /  14.5 km/h 76 % 0.00 in /  0 mm 0 W/m2
23:19 32.5 °F /  0.3 °C 26.1 °F /  -3.3 °C 30.02 in /  1016.5 hPa WNW 6.0 mph /  9.7 km/h 9.0 mph /  14.5 km/h 77 % 0.00 in /  0 mm 0 W/m2
23:24 32.5 °F /  0.3 °C 26.1 °F /  -3.3 °C 30.01 in /  1016.1 hPa West 7.0 mph /  11.3 km/h 11.0 mph /  17.7 km/h 77 % 0.00 in /  0 mm 0 W/m2
23:29 32.5 °F /  0.3 °C 26.1 °F /  -3.3 °C 30.01 in /  1016.1 hPa WNW 10.0 mph /  16.1 km/h 16.0 mph /  25.7 km/h 77 % 0.00 in /  0 mm 0 W/m2
23:34 32.7 °F /  0.4 °C 26.3 °F /  -3.2 °C 30.01 in /  1016.1 hPa WNW 10.0 mph /  16.1 km/h 16.0 mph /  25.7 km/h 77 % 0.00 in /  0 mm 0 W/m2
23:44 32.7 °F /  0.4 °C 26.3 °F /  -3.2 °C 30.01 in /  1016.1 hPa WNW 11.0 mph /  17.7 km/h 20.0 mph /  32.2 km/h 77 % 0.00 in /  0 mm 0 W/m2
23:49 32.9 °F /  0.5 °C 26.5 °F /  -3.1 °C 30.01 in /  1016.1 hPa WNW 11.0 mph /  17.7 km/h 19.0 mph /  30.6 km/h 77 % 0.00 in /  0 mm 0 W/m2
23:54 33.1 °F /  0.6 °C 26.7 °F /  -2.9 °C 30.01 in /  1016.1 hPa WNW 8.0 mph /  12.9 km/h 14.0 mph /  22.5 km/h 77 % 0.00 in /  0 mm 0 W/m2
Delerius-Weather
Compliments of Weather Underground - 1.5 mb

Data updates at regular intervals.